Time;durP1;ratioP1;P1;durP2;ratioP2;P2;SDS_P1;SDS_P2;PMS_P1;PMS_P2;Temp;Humidity;BMP_temperature;BMP_pressure;BME280_temperature;BME280_humidity;BME280_pressure;Samples;Min_cycle;Max_cycle;Signal;HPM_P1;HPM_P2
2021/09/25 00:00:59;;;;;;;4.70;2.30;;;;;;;13.92;71.44;98673.50;236471;1197;22435;-75
2021/09/25 00:06:02;;;;;;;3.90;2.70;;;;;;;13.92;71.50;98670.66;236465;1190;24057;-75
2021/09/25 00:11:06;;;;;;;4.10;2.50;;;;;;;13.90;71.50;98670.18;236387;1197;24126;-74
2021/09/25 00:16:11;;;;;;;3.30;2.20;;;;;;;13.92;71.77;98670.77;236380;1197;24106;-75
2021/09/25 00:21:15;;;;;;;3.10;2.40;;;;;;;13.95;71.63;98673.39;236461;1197;24603;-77
2021/09/25 00:26:19;;;;;;;2.80;2.10;;;;;;;13.94;71.68;98671.80;236498;1197;22440;-74
2021/09/25 00:31:33;;;;;;;3.60;2.50;;;;;;;13.91;71.78;98667.14;236487;1197;24257;-75
2021/09/25 00:36:43;;;;;;;3.20;2.50;;;;;;;13.88;71.98;98659.02;236357;1198;24084;-76
2021/09/25 00:42:05;;;;;;;3.00;2.10;;;;;;;13.86;72.19;98665.61;236417;1190;22937;-75
2021/09/25 00:47:08;;;;;;;4.80;2.80;;;;;;;13.85;72.37;98665.18;236346;1197;22432;-76
2021/09/25 00:52:12;;;;;;;5.40;2.30;;;;;;;13.85;72.52;98664.16;236224;1197;24283;-75
2021/09/25 00:57:15;;;;;;;3.10;2.50;;;;;;;13.84;72.55;98668.92;236331;1198;22778;-73
2021/09/25 01:02:18;;;;;;;2.20;2.00;;;;;;;13.83;72.77;98666.23;236495;1198;22640;-75
2021/09/25 01:07:21;;;;;;;3.90;2.00;;;;;;;13.81;72.85;98662.23;236579;1197;24044;-76
2021/09/25 01:12:24;;;;;;;3.10;1.90;;;;;;;13.84;73.05;98658.05;236072;1193;25108;-75
2021/09/25 01:17:27;;;;;;;2.60;2.30;;;;;;;13.90;73.00;98656.24;236138;1197;24078;-73
2021/09/25 01:22:30;;;;;;;4.30;2.30;;;;;;;13.90;73.20;98652.53;236663;1197;24809;-75
2021/09/25 01:27:35;;;;;;;2.20;1.60;;;;;;;13.86;73.25;98653.09;236332;1190;23686;-76
2021/09/25 01:32:39;;;;;;;3.40;2.30;;;;;;;13.87;73.36;98653.79;236538;1197;25105;-77
2021/09/25 01:37:42;;;;;;;2.40;2.20;;;;;;;13.89;73.48;98664.12;236481;1197;24700;-77
2021/09/25 01:42:53;;;;;;;2.00;1.60;;;;;;;13.91;73.53;98658.52;236615;1190;26124;-75
2021/09/25 01:48:11;;;;;;;2.20;2.00;;;;;;;13.91;73.55;98665.36;236502;1193;25309;-75
2021/09/25 01:53:14;;;;;;;2.40;1.90;;;;;;;13.87;73.75;98663.89;236280;1197;22454;-75
2021/09/25 01:58:16;;;;;;;3.30;1.80;;;;;;;13.84;73.96;98663.66;236599;1190;24608;-74
2021/09/25 02:03:19;;;;;;;2.70;2.10;;;;;;;13.84;74.01;98661.73;235952;1174;24095;-77
2021/09/25 02:08:22;;;;;;;2.30;2.10;;;;;;;13.83;74.20;98658.94;236544;1174;22841;-75
2021/09/25 02:13:26;;;;;;;2.70;2.30;;;;;;;13.83;74.23;98660.88;236411;1197;25054;-75
2021/09/25 02:18:29;;;;;;;2.50;2.20;;;;;;;13.82;74.54;98661.29;236393;1197;24176;-75
2021/09/25 02:23:33;;;;;;;2.80;2.10;;;;;;;13.82;74.70;98664.04;236184;1197;22433;-75
2021/09/25 02:28:36;;;;;;;4.60;3.10;;;;;;;13.82;74.72;98664.20;236556;1192;25171;-76
2021/09/25 02:33:38;;;;;;;3.80;2.50;;;;;;;13.81;74.92;98657.23;236539;1190;24988;-79
2021/09/25 02:38:42;;;;;;;5.20;2.30;;;;;;;13.81;74.99;98660.36;236715;1190;22483;-75
2021/09/25 02:43:44;;;;;;;3.80;2.70;;;;;;;13.81;74.99;98666.86;236590;1197;22438;-74
2021/09/25 02:48:47;;;;;;;3.40;2.40;;;;;;;13.82;75.15;98669.80;236359;1193;22443;-74
2021/09/25 02:53:50;;;;;;;2.40;2.20;;;;;;;13.84;75.04;98678.23;236476;1182;22456;-73
2021/09/25 02:58:52;;;;;;;2.60;2.00;;;;;;;13.88;75.07;98682.02;236185;1197;22975;-73
2021/09/25 03:04:15;;;;;;;2.90;1.90;;;;;;;13.91;75.12;98681.08;236410;1197;22418;-75
2021/09/25 03:09:22;;;;;;;4.60;2.90;;;;;;;13.92;75.04;98685.10;236525;1197;22410;-74
2021/09/25 03:14:25;;;;;;;4.40;2.20;;;;;;;13.92;75.05;98686.08;236421;1197;22473;-74
2021/09/25 03:19:28;;;;;;;3.10;2.60;;;;;;;13.95;75.12;98684.85;236379;1190;24190;-73
2021/09/25 03:24:30;;;;;;;3.00;2.50;;;;;;;13.95;75.11;98688.02;236435;1197;25107;-75
2021/09/25 03:29:33;;;;;;;4.20;2.50;;;;;;;13.94;75.18;98682.36;236591;1191;24041;-74
2021/09/25 03:34:36;;;;;;;3.90;3.20;;;;;;;13.92;75.40;98683.42;236376;1197;22453;-75
2021/09/25 03:39:38;;;;;;;3.30;2.50;;;;;;;13.89;75.40;98679.42;236160;1197;24097;-76
2021/09/25 03:44:43;;;;;;;4.70;2.30;;;;;;;13.88;75.60;98683.02;235974;1196;24016;-74
2021/09/25 03:49:48;;;;;;;4.60;3.30;;;;;;;13.86;75.68;98680.95;236203;1190;22861;-75
2021/09/25 03:54:50;;;;;;;4.30;3.20;;;;;;;13.85;75.81;98683.56;236236;1190;24095;-74
2021/09/25 03:59:53;;;;;;;4.20;2.50;;;;;;;13.84;75.89;98681.60;236646;1183;24169;-73
2021/09/25 04:04:55;;;;;;;3.00;2.70;;;;;;;13.85;75.93;98682.86;236419;1197;24222;-75
2021/09/25 04:10:16;;;;;;;2.60;1.90;;;;;;;13.84;76.09;98685.62;236087;1197;24152;-74
2021/09/25 04:15:22;;;;;;;2.90;2.60;;;;;;;13.86;76.06;98690.33;236229;1197;22456;-74
2021/09/25 04:20:42;;;;;;;3.20;2.30;;;;;;;13.88;76.11;98689.90;236512;1197;22682;-74
2021/09/25 04:25:45;;;;;;;4.00;2.60;;;;;;;13.88;76.15;98690.60;236343;1197;24109;-76
2021/09/25 04:30:50;;;;;;;2.90;2.30;;;;;;;13.89;76.30;98691.90;236329;1197;23329;-76
2021/09/25 04:35:53;;;;;;;2.50;2.20;;;;;;;13.90;76.27;98697.17;236290;1192;22459;-74
2021/09/25 04:40:56;;;;;;;2.40;2.20;;;;;;;13.91;76.32;98708.77;236301;1197;23948;-75
2021/09/25 04:45:58;;;;;;;2.60;2.40;;;;;;;13.93;76.44;98709.54;236375;1190;22440;-73
2021/09/25 04:51:02;;;;;;;3.60;2.40;;;;;;;13.90;76.50;98714.27;236296;1198;25186;-75
2021/09/25 04:56:07;;;;;;;3.00;2.60;;;;;;;13.89;76.73;98718.08;236294;1197;25265;-74
2021/09/25 05:01:11;;;;;;;3.20;2.70;;;;;;;13.89;76.92;98724.20;236407;1197;25397;-75
2021/09/25 05:06:15;;;;;;;2.80;2.40;;;;;;;13.90;77.02;98723.17;236720;1197;26117;-76
2021/09/25 05:11:19;;;;;;;2.80;2.40;;;;;;;13.93;77.02;98723.91;236881;1192;23983;-75
2021/09/25 05:16:22;;;;;;;3.00;2.70;;;;;;;13.95;77.23;98724.05;236847;1190;24057;-76
2021/09/25 05:21:26;;;;;;;4.30;2.80;;;;;;;13.98;77.32;98722.10;236450;1192;23086;-75
2021/09/25 05:26:35;;;;;;;4.00;2.80;;;;;;;14.03;77.43;98725.95;236525;1196;22695;-76
2021/09/25 05:32:01;;;;;;;3.70;3.30;;;;;;;14.09;77.54;98719.20;236463;1194;22552;-75
2021/09/25 05:37:17;;;;;;;6.60;3.20;;;;;;;14.13;77.68;98720.80;236538;1197;22550;-76
2021/09/25 05:42:30;;;;;;;4.40;3.30;;;;;;;14.18;77.92;98727.38;236427;1196;24174;-75
2021/09/25 05:47:34;;;;;;;5.70;3.50;;;;;;;14.25;78.02;98729.80;236376;1197;22439;-74
2021/09/25 05:52:37;;;;;;;5.40;4.60;;;;;;;14.31;78.02;98733.78;236447;1197;22433;-76
2021/09/25 05:57:43;;;;;;;5.90;4.00;;;;;;;14.37;78.12;98736.70;236266;1197;22443;-76
2021/09/25 06:02:45;;;;;;;5.60;4.50;;;;;;;14.46;78.17;98745.29;236372;1197;25111;-73
2021/09/25 06:07:48;;;;;;;5.50;4.60;;;;;;;14.56;78.24;98745.98;236484;1190;22440;-76
2021/09/25 06:12:58;;;;;;;5.50;4.20;;;;;;;14.64;78.35;98746.73;236416;1197;24592;-75
2021/09/25 06:18:21;;;;;;;;;;;;;;;14.75;78.25;98745.60;236480;1197;24019;-76
2021/09/25 06:23:24;;;;;;;5.50;5.00;;;;;;;14.83;78.19;98744.50;236633;1197;22424;-73
2021/09/25 06:28:26;;;;;;;5.30;4.70;;;;;;;14.92;78.21;98743.89;236455;1190;24008;-75
2021/09/25 06:33:29;;;;;;;9.20;4.70;;;;;;;15.04;78.18;98751.67;236446;1190;22473;-75
2021/09/25 06:38:31;;;;;;;5.90;5.30;;;;;;;15.18;78.05;98746.95;236234;1197;24104;-75
2021/09/25 06:43:35;;;;;;;6.50;5.80;;;;;;;15.33;77.82;98745.89;236290;1197;25156;-74
2021/09/25 06:48:42;;;;;;;5.30;4.80;;;;;;;15.50;77.56;98753.09;236788;1189;24196;-74
2021/09/25 06:53:45;;;;;;;7.00;6.00;;;;;;;15.66;77.20;98754.60;237005;1196;22436;-76
2021/09/25 06:59:01;;;;;;;5.80;5.30;;;;;;;15.76;76.72;98755.95;236693;1197;24034;-75
2021/09/25 07:04:08;;;;;;;5.50;4.50;;;;;;;15.85;76.55;98768.59;236714;1190;24161;-74
2021/09/25 07:09:11;;;;;;;5.80;5.00;;;;;;;15.92;76.40;98771.10;236763;1196;23844;-75
2021/09/25 07:14:13;;;;;;;6.80;5.50;;;;;;;15.98;76.21;98770.73;236943;1190;24844;-76
2021/09/25 07:19:17;;;;;;;6.40;4.30;;;;;;;16.00;76.07;98782.55;237003;1189;24110;-75
2021/09/25 07:24:20;;;;;;;6.50;5.00;;;;;;;16.16;76.23;98790.27;236923;1197;22571;-76
2021/09/25 07:29:22;;;;;;;6.40;5.10;;;;;;;16.33;75.98;98790.57;237267;1197;22462;-75
2021/09/25 07:34:26;;;;;;;4.90;4.30;;;;;;;16.50;75.62;98787.95;236767;1183;24149;-75
2021/09/25 07:39:32;;;;;;;6.10;5.40;;;;;;;16.61;75.10;98792.64;236765;1190;22428;-74
2021/09/25 07:44:47;;;;;;;6.00;4.80;;;;;;;16.59;74.75;98788.64;236484;1183;22652;-74
2021/09/25 07:49:51;;;;;;;6.20;5.20;;;;;;;16.63;74.88;98789.73;237464;1197;25183;-73
2021/09/25 07:54:53;;;;;;;5.60;4.70;;;;;;;16.74;74.87;98787.05;237354;1197;24078;-74
2021/09/25 07:59:56;;;;;;;7.60;4.80;;;;;;;16.79;74.49;98790.14;236869;1196;22485;-74
2021/09/25 08:04:58;;;;;;;8.00;5.20;;;;;;;16.81;74.44;98796.48;237093;1196;24070;-73
2021/09/25 08:10:01;;;;;;;6.30;5.30;;;;;;;16.81;74.26;98805.30;237322;1196;22426;-71
2021/09/25 08:15:04;;;;;;;7.00;5.60;;;;;;;16.76;74.31;98804.98;236373;1197;22487;-71
2021/09/25 08:20:10;;;;;;;7.50;6.10;;;;;;;16.77;74.35;98809.34;236762;1183;24018;-73
2021/09/25 08:25:14;;;;;;;6.60;5.60;;;;;;;16.84;74.53;98810.27;236906;1197;22493;-72
2021/09/25 08:30:16;;;;;;;6.80;5.70;;;;;;;16.97;74.37;98815.67;237618;1190;24931;-76
2021/09/25 08:35:21;;;;;;;6.50;5.50;;;;;;;17.10;74.20;98822.48;236705;1193;22542;-71
2021/09/25 08:40:24;;;;;;;5.70;5.10;;;;;;;17.24;73.81;98821.11;238025;1189;22548;-73
2021/09/25 08:45:40;;;;;;;6.10;5.50;;;;;;;17.40;73.79;98820.30;236556;1197;22439;-73
2021/09/25 08:50:56;;;;;;;6.50;4.70;;;;;;;17.58;73.44;98826.21;236446;1190;24038;-74
2021/09/25 08:56:00;;;;;;;6.50;5.60;;;;;;;17.70;73.14;98824.06;236867;1197;25316;-73
2021/09/25 09:01:03;;;;;;;5.80;5.30;;;;;;;17.85;72.95;98827.89;236504;1183;25151;-73
2021/09/25 09:06:15;;;;;;;6.00;5.20;;;;;;;17.91;72.54;98830.66;236505;1197;22461;-71
2021/09/25 09:11:20;;;;;;;6.40;5.40;;;;;;;17.98;72.43;98836.04;236327;1197;23990;-74
2021/09/25 09:16:24;;;;;;;5.80;5.00;;;;;;;18.13;72.52;98836.91;236339;1189;22885;-73
2021/09/25 09:21:29;;;;;;;5.70;5.20;;;;;;;18.31;72.42;98837.08;236671;1197;25212;-75
2021/09/25 09:26:42;;;;;;;5.50;5.00;;;;;;;18.55;72.11;98835.53;236932;1190;22439;-74
2021/09/25 09:31:45;;;;;;;5.90;5.30;;;;;;;18.68;71.29;98834.06;236424;1197;22470;-75
2021/09/25 09:37:00;;;;;;;6.30;5.50;;;;;;;18.86;71.19;98839.67;236689;1192;24078;-74
2021/09/25 09:42:28;;;;;;;6.30;5.20;;;;;;;19.10;70.62;98843.32;236882;1189;22450;-74
2021/09/25 09:47:51;;;;;;;5.20;4.70;;;;;;;19.37;70.80;98843.15;236521;1189;22449;-72
2021/09/25 09:52:54;;;;;;;7.40;5.50;;;;;;;19.74;70.17;98842.98;236339;1196;22900;-74
2021/09/25 09:58:09;;;;;;;7.40;5.60;;;;;;;20.00;69.48;98845.77;236498;1190;22454;-74
2021/09/25 10:03:23;;;;;;;7.50;6.70;;;;;;;20.27;69.31;98849.78;236369;1190;22449;-74
2021/09/25 10:08:26;;;;;;;5.40;4.80;;;;;;;20.56;68.60;98849.55;237030;1197;22449;-75
2021/09/25 10:13:28;;;;;;;7.30;6.10;;;;;;;20.79;67.93;98847.36;237081;1190;22435;-75
2021/09/25 10:18:35;;;;;;;6.00;5.40;;;;;;;20.95;67.13;98846.01;236329;1190;24142;-72
2021/09/25 10:23:50;;;;;;;6.90;5.20;;;;;;;21.05;66.40;98844.13;236843;1197;24057;-72
2021/09/25 10:28:59;;;;;;;5.20;4.70;;;;;;;21.07;65.55;98844.86;237313;1197;22506;-75
2021/09/25 10:34:27;;;;;;;5.40;5.00;;;;;;;21.21;65.58;98845.86;237718;1191;22689;-74
2021/09/25 10:39:35;;;;;;;6.00;5.00;;;;;;;21.30;64.75;98841.73;237237;1190;22451;-74
2021/09/25 10:44:52;;;;;;;5.60;5.10;;;;;;;21.29;63.91;98845.79;237927;1197;22952;-75
2021/09/25 10:50:10;;;;;;;6.60;5.30;;;;;;;21.41;63.38;98843.36;236231;1192;24168;-73
2021/09/25 10:55:32;;;;;;;5.70;4.90;;;;;;;21.50;63.12;98841.38;236540;1190;24047;-74
2021/09/25 11:00:51;;;;;;;5.60;5.00;;;;;;;21.71;62.76;98832.98;236916;1190;22479;-75
2021/09/25 11:06:12;;;;;;;4.80;4.30;;;;;;;21.70;61.93;98834.68;238494;1197;24801;-75
2021/09/25 11:11:26;;;;;;;6.00;4.90;;;;;;;21.88;62.32;98836.33;236938;1197;24034;-74
2021/09/25 11:16:42;;;;;;;5.40;4.80;;;;;;;21.97;61.65;98836.32;236565;1197;22530;-75
2021/09/25 11:21:47;;;;;;;6.30;5.70;;;;;;;22.00;61.00;98835.13;236828;1197;25163;-75
2021/09/25 11:26:51;;;;;;;5.00;4.50;;;;;;;21.94;60.30;98830.35;237102;1197;22474;-75
2021/09/25 11:32:07;;;;;;;4.90;4.50;;;;;;;21.66;60.97;98824.94;236733;1196;22581;-75
2021/09/25 11:37:11;;;;;;;5.30;4.80;;;;;;;21.35;60.59;98823.16;237150;1197;22845;-73
2021/09/25 11:42:13;;;;;;;5.00;4.40;;;;;;;21.09;60.69;98820.87;236563;1190;24303;-74
2021/09/25 11:47:36;;;;;;;4.20;3.80;;;;;;;20.98;60.86;98819.62;236396;1197;24010;-75
2021/09/25 11:52:39;;;;;;;7.70;4.20;;;;;;;21.12;61.85;98818.73;236811;1190;22445;-74
2021/09/25 11:57:46;;;;;;;4.30;3.90;;;;;;;21.37;61.55;98816.89;236498;1192;25196;-74
2021/09/25 12:02:51;;;;;;;3.80;3.40;;;;;;;21.65;61.62;98811.69;236571;1197;25171;-75
2021/09/25 12:07:54;;;;;;;5.20;4.40;;;;;;;22.00;60.84;98811.27;236548;1197;22430;-74
2021/09/25 12:13:01;;;;;;;4.90;4.50;;;;;;;22.04;59.58;98811.50;236795;1197;22500;-75
2021/09/25 12:18:29;;;;;;;4.30;3.60;;;;;;;21.99;59.51;98812.42;236406;1197;23138;-71
2021/09/25 12:24:07;;;;;;;4.30;3.70;;;;;;;21.89;58.94;98813.37;236521;1197;22461;-73
2021/09/25 12:29:21;;;;;;;4.20;3.80;;;;;;;21.84;58.25;98817.34;236455;1197;24080;-74
2021/09/25 12:34:24;;;;;;;5.90;4.60;;;;;;;21.96;59.00;98819.86;236845;1192;24072;-75
2021/09/25 12:39:30;;;;;;;5.20;4.60;;;;;;;22.16;58.94;98823.48;236402;1197;24051;-75
2021/09/25 12:44:36;;;;;;;4.40;4.00;;;;;;;22.14;58.42;98828.11;236277;1197;24073;-75
2021/09/25 12:49:39;;;;;;;3.60;3.30;;;;;;;22.02;58.40;98827.92;236592;1191;25011;-75
2021/09/25 12:54:50;;;;;;;3.60;3.30;;;;;;;21.87;58.57;98830.85;236891;1197;24020;-75
2021/09/25 13:00:08;;;;;;;3.70;3.30;;;;;;;21.69;58.70;98831.63;236778;1192;23051;-74
2021/09/25 13:05:11;;;;;;;3.80;3.50;;;;;;;21.46;58.80;98839.05;236537;1197;22473;-75
2021/09/25 13:10:22;;;;;;;4.30;3.70;;;;;;;21.23;59.30;98836.85;236607;1191;24535;-72
2021/09/25 13:15:30;;;;;;;4.40;3.80;;;;;;;21.07;59.79;98836.14;236610;1189;22558;-73
2021/09/25 13:20:33;;;;;;;6.60;4.40;;;;;;;21.00;60.00;98843.39;236427;1197;22473;-74
2021/09/25 13:25:35;;;;;;;4.60;4.00;;;;;;;20.91;59.81;98843.19;236447;1189;22511;-74
2021/09/25 13:30:38;;;;;;;5.00;4.50;;;;;;;20.79;60.23;98843.64;236297;1190;24155;-72
2021/09/25 13:35:40;;;;;;;5.00;4.30;;;;;;;20.73;60.28;98844.66;237254;1197;24037;-75
2021/09/25 13:40:42;;;;;;;4.40;4.00;;;;;;;20.74;60.45;98841.88;236364;1190;24164;-74
2021/09/25 13:45:45;;;;;;;5.40;4.70;;;;;;;20.83;60.54;98840.31;236541;1197;22452;-74
2021/09/25 13:50:47;;;;;;;5.30;4.30;;;;;;;20.91;60.50;98836.44;237256;1193;22957;-72
2021/09/25 13:55:50;;;;;;;5.00;3.90;;;;;;;20.99;60.34;98837.52;236677;1197;22456;-73
2021/09/25 14:00:56;;;;;;;6.70;5.20;;;;;;;21.04;60.24;98841.68;236449;1196;24127;-74
2021/09/25 14:05:59;;;;;;;4.50;4.10;;;;;;;21.04;60.05;98842.23;236646;1196;22458;-75
2021/09/25 14:11:02;;;;;;;4.70;3.90;;;;;;;21.01;60.05;98843.49;236492;1189;24085;-75
2021/09/25 14:16:10;;;;;;;4.70;4.20;;;;;;;21.00;59.81;98848.53;236515;1197;22581;-75
2021/09/25 14:21:15;;;;;;;4.40;4.00;;;;;;;20.99;59.54;98848.83;236440;1198;24242;-75
2021/09/25 14:26:17;;;;;;;4.40;3.90;;;;;;;20.99;59.40;98858.02;236435;1192;22562;-74
2021/09/25 14:31:20;;;;;;;3.90;3.50;;;;;;;20.94;59.14;98854.16;236454;1190;24113;-74
2021/09/25 14:36:23;;;;;;;4.30;3.60;;;;;;;20.84;58.81;98855.70;236371;1197;25110;-75
2021/09/25 14:41:26;;;;;;;4.00;3.60;;;;;;;20.72;58.95;98859.87;236309;1197;24016;-72
2021/09/25 14:46:29;;;;;;;4.40;3.40;;;;;;;20.66;59.11;98866.52;236435;1192;24092;-74
2021/09/25 14:51:40;;;;;;;3.90;3.60;;;;;;;20.63;59.36;98867.20;236686;1193;22423;-74
2021/09/25 14:56:44;;;;;;;5.30;4.30;;;;;;;20.56;59.47;98864.00;236373;1197;24016;-74
2021/09/25 15:01:46;;;;;;;4.70;4.30;;;;;;;20.47;59.64;98874.91;236389;1197;22457;-74
2021/09/25 15:06:56;;;;;;;3.70;3.40;;;;;;;20.38;59.96;98875.92;236327;1197;22491;-74
2021/09/25 15:11:59;;;;;;;7.00;3.40;;;;;;;20.34;60.22;98874.74;236252;1184;24114;-75
2021/09/25 15:17:03;;;;;;;4.60;3.70;;;;;;;20.31;60.37;98876.31;236516;1190;24098;-74
2021/09/25 15:22:07;;;;;;;4.10;3.50;;;;;;;20.28;60.42;98879.73;236493;1197;24360;-75
2021/09/25 15:27:14;;;;;;;4.20;3.80;;;;;;;20.22;60.46;98876.70;236340;1190;22436;-74
2021/09/25 15:32:17;;;;;;;5.90;5.30;;;;;;;20.08;60.63;98879.16;236302;1197;25621;-73
2021/09/25 15:37:20;;;;;;;4.90;4.40;;;;;;;19.95;60.69;98882.33;236883;1197;22509;-72
2021/09/25 15:42:23;;;;;;;6.00;4.60;;;;;;;19.83;61.05;98884.25;236540;1193;24033;-72
2021/09/25 15:47:26;;;;;;;4.60;4.10;;;;;;;19.72;61.34;98886.58;236693;1197;22492;-73
2021/09/25 15:52:29;;;;;;;4.00;3.50;;;;;;;19.62;61.56;98889.48;236434;1197;25664;-73
2021/09/25 15:57:32;;;;;;;3.60;3.30;;;;;;;19.52;61.73;98885.41;236321;1183;24184;-72
2021/09/25 16:02:35;;;;;;;4.00;3.60;;;;;;;19.41;61.98;98890.30;236520;1193;22447;-75
2021/09/25 16:07:39;;;;;;;4.50;3.80;;;;;;;19.32;62.31;98888.11;236402;1190;24192;-75
2021/09/25 16:12:41;;;;;;;5.20;3.70;;;;;;;19.25;62.55;98892.16;236267;1190;24013;-72
2021/09/25 16:17:47;;;;;;;6.80;4.60;;;;;;;19.15;62.71;98894.20;236094;1197;25113;-73
2021/09/25 16:22:50;;;;;;;8.80;4.80;;;;;;;19.03;62.83;98890.13;236424;1197;22462;-74
2021/09/25 16:27:52;;;;;;;5.50;4.50;;;;;;;18.91;62.94;98892.31;236417;1197;22546;-74
2021/09/25 16:32:56;;;;;;;6.20;4.90;;;;;;;18.82;63.54;98894.73;236325;1197;22442;-74
2021/09/25 16:38:12;;;;;;;7.90;5.70;;;;;;;18.79;63.93;98896.81;236279;1197;24073;-74
2021/09/25 16:43:35;;;;;;;6.80;5.90;;;;;;;18.77;64.42;98901.70;236331;1195;24101;-72
2021/09/25 16:48:38;;;;;;;9.10;6.60;;;;;;;18.72;64.65;98903.01;236456;1197;24050;-74
2021/09/25 16:53:41;;;;;;;10.50;7.30;;;;;;;18.63;64.80;98910.43;236449;1197;24101;-74
2021/09/25 16:58:45;;;;;;;10.70;8.20;;;;;;;18.57;64.99;98914.12;236334;1197;25077;-73
2021/09/25 17:03:47;;;;;;;15.50;9.40;;;;;;;18.48;65.15;98919.69;236188;1190;22435;-72
2021/09/25 17:08:51;;;;;;;11.90;8.50;;;;;;;18.41;65.29;98918.70;236054;1197;24136;-74
2021/09/25 17:13:54;;;;;;;12.00;9.10;;;;;;;18.31;65.42;98924.34;236336;1197;24131;-74
2021/09/25 17:18:57;;;;;;;14.90;10.90;;;;;;;18.22;65.86;98928.37;236855;1198;25483;-74
2021/09/25 17:24:01;;;;;;;11.60;9.20;;;;;;;18.19;66.18;98925.63;236905;1197;22432;-75
2021/09/25 17:29:03;;;;;;;11.80;10.10;;;;;;;18.16;66.52;98928.23;236793;1197;25118;-74
2021/09/25 17:34:09;;;;;;;11.30;10.10;;;;;;;18.15;66.50;98932.54;237175;1197;23935;-74
2021/09/25 17:39:12;;;;;;;10.00;8.70;;;;;;;18.11;66.40;98938.77;236971;1197;22525;-74
2021/09/25 17:44:14;;;;;;;9.20;8.30;;;;;;;18.07;66.23;98938.77;236610;1197;22460;-73
2021/09/25 17:49:18;;;;;;;10.60;8.80;;;;;;;18.00;66.42;98940.41;236503;1197;25187;-74
2021/09/25 17:54:43;;;;;;;11.30;9.90;;;;;;;17.93;66.55;98941.79;236379;1194;22430;-72
2021/09/25 17:59:48;;;;;;;23.30;17.70;;;;;;;17.78;66.81;98953.53;236042;1198;24599;-73
2021/09/25 18:04:52;;;;;;;28.80;20.60;;;;;;;17.41;67.35;98951.92;236407;1190;24108;-73
2021/09/25 18:09:55;;;;;;;23.20;16.30;;;;;;;17.11;68.15;98945.07;236347;1190;24507;-71
2021/09/25 18:15:02;;;;;;;21.70;15.60;;;;;;;16.91;68.67;98951.11;236276;1197;22483;-74
2021/09/25 18:20:07;;;;;;;22.30;17.10;;;;;;;16.78;69.31;98951.48;236150;1198;24184;-72
2021/09/25 18:25:12;;;;;;;22.30;16.30;;;;;;;16.64;69.81;98958.80;236486;1198;22426;-74
2021/09/25 18:30:14;;;;;;;19.30;14.60;;;;;;;16.48;70.16;98964.98;236438;1197;22473;-74
2021/09/25 18:35:23;;;;;;;19.10;14.50;;;;;;;16.37;70.58;98969.28;236460;1197;22426;-72
2021/09/25 18:40:27;;;;;;;17.80;14.70;;;;;;;16.26;71.06;98974.88;236871;1198;24218;-75
2021/09/25 18:45:30;;;;;;;22.40;17.20;;;;;;;16.20;71.67;98983.95;236345;1198;22508;-75
2021/09/25 18:50:33;;;;;;;27.50;19.60;;;;;;;16.15;71.96;98990.70;236559;1197;22566;-74
2021/09/25 18:55:36;;;;;;;33.10;22.80;;;;;;;16.11;72.01;98987.64;236425;1198;22471;-73
2021/09/25 19:00:38;;;;;;;40.00;27.70;;;;;;;16.08;72.33;98989.85;236171;1193;22531;-73
2021/09/25 19:05:42;;;;;;;45.80;32.00;;;;;;;16.01;72.61;98990.33;236288;1198;24086;-73
2021/09/25 19:10:54;;;;;;;47.70;32.50;;;;;;;15.98;73.05;98990.96;236408;1190;24108;-73
2021/09/25 19:16:09;;;;;;;45.60;31.10;;;;;;;15.96;73.28;98996.96;236207;1198;24105;-72
2021/09/25 19:21:13;;;;;;;55.50;38.60;;;;;;;16.03;73.68;98995.78;236406;1198;24756;-74
2021/09/25 19:26:16;;;;;;;49.20;34.30;;;;;;;16.05;73.55;98996.43;236489;1197;24042;-75
2021/09/25 19:31:19;;;;;;;40.80;27.60;;;;;;;16.04;73.63;99005.48;236622;1197;24113;-72
2021/09/25 19:36:24;;;;;;;40.30;26.80;;;;;;;16.01;73.71;99004.98;236568;1198;24152;-74
2021/09/25 19:41:27;;;;;;;44.20;30.60;;;;;;;16.00;73.77;99003.93;236556;1198;24185;-74
2021/09/25 19:46:29;;;;;;;44.70;31.50;;;;;;;16.00;73.86;99012.04;236633;1198;22453;-74
2021/09/25 19:51:34;;;;;;;43.70;30.40;;;;;;;16.03;73.95;99009.61;236769;1198;22883;-74
2021/09/25 19:56:37;;;;;;;45.10;30.20;;;;;;;16.00;73.88;99008.51;235946;1198;24168;-75
2021/09/25 20:01:40;;;;;;;49.30;33.00;;;;;;;15.97;73.97;99011.73;236622;1198;25293;-73
2021/09/25 20:06:44;;;;;;;45.70;33.30;;;;;;;15.94;74.18;99012.98;236620;1197;26298;-74
2021/09/25 20:11:47;;;;;;;47.90;32.20;;;;;;;15.91;74.37;99009.63;236258;1198;22550;-73
2021/09/25 20:16:50;;;;;;;43.60;31.30;;;;;;;15.96;74.68;99008.92;236071;1192;24132;-74
2021/09/25 20:21:55;;;;;;;51.80;34.50;;;;;;;16.08;74.95;99014.64;236424;1190;25015;-74
2021/09/25 20:26:58;;;;;;;46.00;32.80;;;;;;;16.18;75.02;99017.37;236159;1198;23298;-74
2021/09/25 20:32:00;;;;;;;47.80;31.60;;;;;;;16.23;74.91;99019.85;236007;1184;24188;-75
2021/09/25 20:37:03;;;;;;;44.80;30.30;;;;;;;16.26;74.84;99018.19;236339;1194;22459;-74
2021/09/25 20:42:06;;;;;;;45.30;32.70;;;;;;;16.29;74.88;99024.89;236565;1190;24226;-73
2021/09/25 20:47:10;;;;;;;49.20;34.60;;;;;;;16.24;74.64;99027.54;236422;1193;25208;-73
2021/09/25 20:52:12;;;;;;;50.70;35.50;;;;;;;16.14;74.60;99031.58;236436;1197;22425;-73
2021/09/25 20:57:15;;;;;;;49.80;34.40;;;;;;;16.07;74.81;99026.55;236369;1190;25199;-74
2021/09/25 21:02:17;;;;;;;53.10;38.80;;;;;;;16.03;74.99;99033.27;236741;1190;24045;-74
2021/09/25 21:07:20;;;;;;;50.20;36.60;;;;;;;16.05;75.25;99034.52;236509;1193;24087;-75
2021/09/25 21:12:23;;;;;;;49.50;34.70;;;;;;;16.13;75.50;99042.77;236327;1197;25283;-74
2021/09/25 21:17:26;;;;;;;43.60;31.30;;;;;;;16.21;75.66;99039.08;236615;1197;22470;-74
2021/09/25 21:22:29;;;;;;;48.40;32.30;;;;;;;16.31;75.62;99046.45;236477;1197;22448;-72
2021/09/25 21:27:32;;;;;;;47.30;32.80;;;;;;;16.35;75.56;99046.39;236446;1194;22452;-74
2021/09/25 21:32:34;;;;;;;45.70;29.90;;;;;;;16.39;75.67;99045.10;236238;1197;24135;-72
2021/09/25 21:37:37;;;;;;;42.60;29.80;;;;;;;16.44;75.62;99044.46;236004;1197;25140;-74
2021/09/25 21:42:40;;;;;;;46.40;30.30;;;;;;;16.50;75.64;99040.16;236156;1197;22438;-75
2021/09/25 21:47:42;;;;;;;44.40;31.30;;;;;;;16.54;75.61;99043.88;236275;1190;22451;-71
2021/09/25 21:52:45;;;;;;;43.10;29.50;;;;;;;16.56;75.39;99051.23;236252;1197;24082;-74
2021/09/25 21:57:49;;;;;;;41.40;29.00;;;;;;;16.53;75.10;99051.79;236291;1183;22493;-74
2021/09/25 22:02:55;;;;;;;50.80;35.40;;;;;;;16.39;74.77;99052.80;236152;1190;22939;-73
2021/09/25 22:07:59;;;;;;;54.10;37.00;;;;;;;16.31;75.24;99047.80;236318;1197;22425;-74
2021/09/25 22:13:02;;;;;;;52.60;36.10;;;;;;;16.32;75.50;99051.29;236294;1190;24048;-73
2021/09/25 22:18:05;;;;;;;54.10;36.00;;;;;;;16.30;75.37;99050.04;236325;1190;22505;-73
2021/09/25 22:23:10;;;;;;;54.00;36.90;;;;;;;16.31;75.65;99050.67;235883;1197;24031;-72
2021/09/25 22:28:19;;;;;;;51.60;37.20;;;;;;;16.29;75.61;99053.16;236112;1190;25076;-73
2021/09/25 22:33:25;;;;;;;55.90;36.30;;;;;;;16.16;75.38;99054.66;236115;1198;25222;-74
2021/09/25 22:38:33;;;;;;;50.90;34.40;;;;;;;16.08;75.73;99056.55;236276;1190;22460;-74
2021/09/25 22:43:37;;;;;;;52.60;36.40;;;;;;;16.10;76.18;99053.17;236096;1197;22501;-75
2021/09/25 22:48:41;;;;;;;52.90;34.90;;;;;;;16.11;76.19;99048.42;236136;1197;24091;-73
2021/09/25 22:53:43;;;;;;;45.90;31.80;;;;;;;16.08;76.28;99047.54;236227;1190;22455;-74
2021/09/25 22:58:46;;;;;;;43.20;30.00;;;;;;;16.10;76.48;99048.52;236368;1197;22422;-74
2021/09/25 23:03:48;;;;;;;43.80;31.80;;;;;;;16.06;76.35;99049.52;236316;1197;24306;-74
2021/09/25 23:08:51;;;;;;;45.80;32.60;;;;;;;15.89;76.50;99047.85;236285;1196;22555;-75
2021/09/25 23:13:54;;;;;;;44.70;29.40;;;;;;;15.76;76.75;99047.09;236049;1190;22524;-72
2021/09/25 23:18:57;;;;;;;41.10;29.10;;;;;;;15.57;76.67;99043.20;235972;1189;22851;-71
2021/09/25 23:23:59;;;;;;;46.10;31.50;;;;;;;15.39;77.03;99044.34;236227;1190;22546;-75
2021/09/25 23:29:04;;;;;;;53.90;35.20;;;;;;;15.14;77.12;99052.05;236249;1196;22920;-74
2021/09/25 23:34:09;;;;;;;51.40;33.80;;;;;;;14.97;77.70;99061.70;236166;1189;24509;-74